createdAt,value
2023-04-07T00:01:03.247Z,8.90
2023-04-07T00:03:07.833Z,9.10
2023-04-07T00:05:11.099Z,8.43
2023-04-07T00:07:14.143Z,10.20
2023-04-07T00:09:17.299Z,9.20
2023-04-07T00:11:20.515Z,9.20
2023-04-07T00:13:23.976Z,9.30
2023-04-07T00:15:27.121Z,8.73
2023-04-07T00:17:31.646Z,9.70
2023-04-07T00:19:34.798Z,8.27
2023-04-07T00:21:37.976Z,8.83
2023-04-07T00:23:41.028Z,7.77
2023-04-07T00:25:44.040Z,8.97
2023-04-07T00:27:47.036Z,9.20
2023-04-07T00:29:50.206Z,8.90
2023-04-07T00:31:53.547Z,9.63
2023-04-07T00:33:58.101Z,9.80
2023-04-07T00:36:02.464Z,7.90
2023-04-07T00:38:05.624Z,8.20
2023-04-07T00:40:09.877Z,8.90
2023-04-07T00:42:12.904Z,8.77
2023-04-07T00:44:16.157Z,8.40
2023-04-07T00:46:19.739Z,8.77
2023-04-07T00:48:23.267Z,8.83
2023-04-07T00:50:27.793Z,8.90
2023-04-07T00:52:30.903Z,8.80
2023-04-07T00:54:34.185Z,7.43
2023-04-07T00:56:37.424Z,7.60
2023-04-07T00:58:40.772Z,7.90
2023-04-07T01:00:48.309Z,8.10
2023-04-07T01:02:56.986Z,8.10
2023-04-07T01:05:08.624Z,7.90
2023-04-07T01:07:17.410Z,7.87
2023-04-07T01:09:29.690Z,8.20
2023-04-07T01:11:43.852Z,7.30
2023-04-07T01:13:53.125Z,7.30
2023-04-07T01:16:13.011Z,7.33
2023-04-07T01:18:23.663Z,7.93
2023-04-07T01:20:28.944Z,7.93
2023-04-07T01:22:42.393Z,7.53
2023-04-07T01:25:07.677Z,7.63
2023-04-07T01:27:21.337Z,7.75
2023-04-07T01:29:32.371Z,7.30
2023-04-07T01:31:36.124Z,6.83
2023-04-07T01:33:40.285Z,6.60
2023-04-07T01:35:44.155Z,6.50
2023-04-07T01:37:48.920Z,7.32
2023-04-07T01:39:51.952Z,6.57
2023-04-07T01:41:55.798Z,7.00
2023-04-07T01:43:59.585Z,6.60
2023-04-07T01:46:04.845Z,7.27
2023-04-07T01:48:08.617Z,6.70
2023-04-07T01:50:12.961Z,6.63
2023-04-07T01:52:16.391Z,7.50
2023-04-07T01:54:19.766Z,7.07
2023-04-07T01:56:22.844Z,6.77
2023-04-07T01:58:28.663Z,6.07
2023-04-07T02:00:32.667Z,6.63
2023-04-07T02:02:43.142Z,7.23
2023-04-07T02:04:50.583Z,7.05
2023-04-07T02:06:56.442Z,7.13
2023-04-07T02:09:12.060Z,7.40
2023-04-07T02:11:17.018Z,7.40
2023-04-07T02:13:21.825Z,6.60
2023-04-07T02:15:27.393Z,7.07
2023-04-07T02:17:30.522Z,7.00
2023-04-07T02:19:35.988Z,6.60
2023-04-07T02:21:41.187Z,7.10
2023-04-07T02:23:44.193Z,7.77
2023-04-07T02:25:47.368Z,7.63
2023-04-07T02:27:50.422Z,7.30
2023-04-07T02:29:55.264Z,6.80
2023-04-07T02:31:59.681Z,7.22
2023-04-07T02:34:05.832Z,7.47
2023-04-07T02:36:10.501Z,7.33
2023-04-07T02:38:13.576Z,7.83
2023-04-07T02:40:17.106Z,7.43
2023-04-07T02:42:20.617Z,7.40
2023-04-07T02:44:24.643Z,8.00
2023-04-07T02:46:27.742Z,7.37
2023-04-07T02:48:30.937Z,7.83
2023-04-07T02:50:34.101Z,7.60
2023-04-07T02:52:38.529Z,7.70
2023-04-07T02:54:47.429Z,7.03
2023-04-07T02:56:51.627Z,7.80
2023-04-07T02:58:54.764Z,7.87
2023-04-07T03:00:58.438Z,8.10
2023-04-07T03:03:05.590Z,7.20
2023-04-07T03:05:12.701Z,8.47
2023-04-07T03:07:15.775Z,7.27
2023-04-07T03:09:20.311Z,7.87
2023-04-07T03:11:23.405Z,7.73
2023-04-07T03:13:29.848Z,8.17
2023-04-07T03:15:33.019Z,7.50
2023-04-07T03:17:36.656Z,8.20
2023-04-07T03:19:41.135Z,8.77
2023-04-07T03:21:44.428Z,7.80
2023-04-07T03:23:47.717Z,8.37
2023-04-07T03:25:52.411Z,8.13
2023-04-07T03:27:56.006Z,8.60
2023-04-07T03:30:01.055Z,8.50
2023-04-07T03:32:06.093Z,9.10
2023-04-07T03:34:09.589Z,8.50
2023-04-07T03:36:13.962Z,8.17
2023-04-07T03:38:17.419Z,8.13
2023-04-07T03:40:22.110Z,8.27
2023-04-07T03:42:26.733Z,8.90
2023-04-07T03:44:36.314Z,8.50
2023-04-07T03:46:39.462Z,8.97
2023-04-07T03:48:42.624Z,8.80
2023-04-07T03:50:47.589Z,8.80
2023-04-07T03:52:53.528Z,8.33
2023-04-07T03:55:01.075Z,8.23
2023-04-07T03:57:07.567Z,8.67
2023-04-07T03:59:17.535Z,8.80
2023-04-07T04:01:33.226Z,8.93
2023-04-07T04:03:43.852Z,8.50
2023-04-07T04:05:57.783Z,8.97
2023-04-07T04:08:11.192Z,9.90
2023-04-07T04:10:16.405Z,8.80
2023-04-07T04:12:23.883Z,9.17
2023-04-07T04:14:39.372Z,9.27
2023-04-07T04:16:44.584Z,9.47
2023-04-07T04:19:00.823Z,8.80
2023-04-07T04:21:06.966Z,9.30
2023-04-07T04:23:10.799Z,9.53
2023-04-07T04:25:13.958Z,9.00
2023-04-07T04:27:22.314Z,9.27
2023-04-07T04:29:31.693Z,9.33
2023-04-07T04:31:38.545Z,9.10
2023-04-07T04:33:42.033Z,9.57
2023-04-07T04:35:46.390Z,10.10
2023-04-07T04:37:52.911Z,10.20
2023-04-07T04:39:56.128Z,10.03
2023-04-07T04:42:01.227Z,11.40
2023-04-07T04:44:09.734Z,10.13
2023-04-07T04:46:15.475Z,9.50
2023-04-07T04:48:21.214Z,9.77
2023-04-07T04:50:24.311Z,10.50
2023-04-07T04:52:28.871Z,10.07
2023-04-07T04:54:33.116Z,9.93
2023-04-07T04:56:36.545Z,10.87
2023-04-07T04:58:42.119Z,10.17
2023-04-07T05:00:47.126Z,9.70
2023-04-07T05:02:50.684Z,10.33
2023-04-07T05:04:55.358Z,10.20
2023-04-07T05:07:02.547Z,9.90
2023-04-07T05:09:07.443Z,12.00
2023-04-07T05:11:17.897Z,11.03
2023-04-07T05:13:25.754Z,10.23
2023-04-07T05:15:29.464Z,11.30
2023-04-07T05:17:33.245Z,10.43
2023-04-07T05:19:37.684Z,10.10
2023-04-07T05:21:49.474Z,10.10
2023-04-07T05:23:54.333Z,10.30
2023-04-07T05:25:59.709Z,10.00
2023-04-07T05:28:02.814Z,10.43
2023-04-07T05:30:07.034Z,9.27
2023-04-07T05:32:11.295Z,10.20
2023-04-07T05:34:14.421Z,9.70
2023-04-07T05:36:24.224Z,10.57
2023-04-07T05:38:32.553Z,10.05
2023-04-07T05:40:42.963Z,8.90
2023-04-07T05:42:51.090Z,9.70
2023-04-07T05:44:54.391Z,9.60
2023-04-07T05:46:59.539Z,10.80
2023-04-07T05:49:18.968Z,9.80
2023-04-07T05:51:27.551Z,9.40
2023-04-07T05:53:33.493Z,10.40
2023-04-07T05:55:36.657Z,10.40
2023-04-07T05:57:41.856Z,10.77
2023-04-07T05:59:46.457Z,9.83
2023-04-07T06:01:50.685Z,9.63
2023-04-07T06:03:54.229Z,10.93
2023-04-07T06:06:00.319Z,9.82
2023-04-07T06:08:03.439Z,9.30
2023-04-07T06:10:09.673Z,9.63
2023-04-07T06:12:13.459Z,10.93
2023-04-07T06:14:16.760Z,10.07
2023-04-07T06:16:20.515Z,11.63
2023-04-07T06:18:23.592Z,10.23
2023-04-07T06:20:27.750Z,11.00
2023-04-07T06:22:30.766Z,11.50
2023-04-07T06:24:33.839Z,10.80
2023-04-07T06:26:38.331Z,10.80
2023-04-07T06:28:41.473Z,12.07
2023-04-07T06:30:44.556Z,11.30
2023-04-07T06:32:49.495Z,11.70
2023-04-07T06:34:52.581Z,10.90
2023-04-07T06:36:58.195Z,11.30
2023-04-07T06:39:02.451Z,15.77
2023-04-07T06:41:06.306Z,11.50
2023-04-07T06:43:10.730Z,11.77
2023-04-07T06:45:18.309Z,13.13
2023-04-07T06:47:21.395Z,11.60
2023-04-07T06:49:24.453Z,11.43
2023-04-07T06:51:27.788Z,11.50
2023-04-07T06:53:31.048Z,12.13
2023-04-07T06:55:34.129Z,11.63
2023-04-07T06:57:37.701Z,12.30
2023-04-07T06:59:42.131Z,11.67
2023-04-07T07:01:45.513Z,11.90
2023-04-07T07:03:48.997Z,11.43
2023-04-07T07:05:52.866Z,11.87
2023-04-07T07:07:57.641Z,13.07
2023-04-07T07:10:00.933Z,13.53
2023-04-07T07:12:04.440Z,12.10
2023-04-07T07:14:07.550Z,11.97
2023-04-07T07:16:12.877Z,12.77
2023-04-07T07:18:16.243Z,11.37
2023-04-07T07:20:19.427Z,10.90
2023-04-07T07:22:22.508Z,11.80
2023-04-07T07:24:25.678Z,11.43
2023-04-07T07:26:28.742Z,11.80
2023-04-07T07:28:31.874Z,11.17
2023-04-07T07:30:34.862Z,12.07
2023-04-07T07:32:39.599Z,11.00
2023-04-07T07:34:42.686Z,11.97
2023-04-07T07:36:46.009Z,12.30
2023-04-07T07:38:51.350Z,11.30
2023-04-07T07:40:54.630Z,11.37
2023-04-07T07:42:57.745Z,11.73
2023-04-07T07:45:01.165Z,11.03
2023-04-07T07:47:04.278Z,11.93
2023-04-07T07:49:08.745Z,11.83
2023-04-07T07:51:12.018Z,11.87
2023-04-07T07:53:15.254Z,14.70
2023-04-07T07:55:18.305Z,11.00
2023-04-07T07:57:21.961Z,11.70
2023-04-07T07:59:25.147Z,11.70
2023-04-07T08:01:28.445Z,11.00
2023-04-07T08:03:32.006Z,10.80
2023-04-07T08:05:36.502Z,10.43
2023-04-07T08:07:39.678Z,10.40
2023-04-07T08:09:42.918Z,11.00
2023-04-07T08:11:45.918Z,9.77
2023-04-07T08:13:49.686Z,9.87
2023-04-07T08:15:53.097Z,10.73
2023-04-07T08:17:56.538Z,10.93
2023-04-07T08:19:59.813Z,11.27
2023-04-07T08:22:04.357Z,10.83
2023-04-07T08:24:07.920Z,9.63
2023-04-07T08:26:11.053Z,10.17
2023-04-07T08:28:14.150Z,9.90
2023-04-07T08:30:17.336Z,9.43
2023-04-07T08:32:20.554Z,9.37
2023-04-07T08:34:23.954Z,10.23
2023-04-07T08:36:28.028Z,10.03
2023-04-07T08:38:32.512Z,9.80
2023-04-07T08:40:35.635Z,9.67
2023-04-07T08:42:43.021Z,10.43
2023-04-07T08:44:46.404Z,9.30
2023-04-07T08:46:50.543Z,9.53
2023-04-07T08:48:54.276Z,9.50
2023-04-07T08:50:57.618Z,8.90
2023-04-07T08:53:02.044Z,9.70
2023-04-07T08:55:08.533Z,9.33
2023-04-07T08:57:12.286Z,10.07
2023-04-07T08:59:18.641Z,8.70
2023-04-07T09:01:24.422Z,9.10
2023-04-07T09:03:27.802Z,8.57
2023-04-07T09:05:31.193Z,9.20
2023-04-07T09:07:35.595Z,10.00
2023-04-07T09:09:38.754Z,9.23
2023-04-07T09:11:43.181Z,9.53
2023-04-07T09:13:47.137Z,8.80
2023-04-07T09:15:50.360Z,9.03
2023-04-07T09:17:53.449Z,8.73
2023-04-07T09:19:58.332Z,9.07
2023-04-07T09:22:01.371Z,9.73
2023-04-07T09:24:21.811Z,9.53
2023-04-07T09:26:26.099Z,8.60
2023-04-07T09:28:42.388Z,8.10
2023-04-07T09:30:54.142Z,8.93
2023-04-07T09:32:57.276Z,9.67
2023-04-07T09:35:01.136Z,8.80
2023-04-07T09:37:04.900Z,10.30
2023-04-07T09:39:10.683Z,8.70
2023-04-07T09:41:15.234Z,9.67
2023-04-07T09:43:20.431Z,8.73
2023-04-07T09:45:34.432Z,8.80
2023-04-07T09:47:39.343Z,9.57
2023-04-07T09:49:52.421Z,8.70
2023-04-07T09:51:56.871Z,7.60
2023-04-07T09:54:00.327Z,8.97
2023-04-07T09:56:03.786Z,9.03
2023-04-07T09:58:07.544Z,9.23
2023-04-07T10:00:12.942Z,9.00
2023-04-07T10:02:20.449Z,9.00
2023-04-07T10:04:24.014Z,8.77
2023-04-07T10:06:27.629Z,8.90
2023-04-07T10:08:33.350Z,8.23
2023-04-07T10:10:37.023Z,7.57
2023-04-07T10:12:41.543Z,7.17
2023-04-07T10:14:47.060Z,9.10
2023-04-07T10:16:52.291Z,8.40
2023-04-07T10:18:56.829Z,8.10
2023-04-07T10:21:02.749Z,7.83
2023-04-07T10:23:12.480Z,8.00
2023-04-07T10:25:18.560Z,8.20
2023-04-07T10:27:25.541Z,8.53
2023-04-07T10:29:30.716Z,7.97
2023-04-07T10:31:34.250Z,7.90
2023-04-07T10:33:48.314Z,7.80
2023-04-07T10:36:07.049Z,7.87
2023-04-07T10:38:15.252Z,7.60
2023-04-07T10:40:36.416Z,7.50
2023-04-07T10:42:46.468Z,7.70
2023-04-07T10:44:53.107Z,8.60
2023-04-07T10:47:06.163Z,7.33
2023-04-07T10:49:10.419Z,7.17
2023-04-07T10:51:18.980Z,6.93
2023-04-07T10:53:22.530Z,7.63
2023-04-07T10:55:33.846Z,7.00
2023-04-07T10:57:37.779Z,6.67
2023-04-07T10:59:47.015Z,6.90
2023-04-07T11:01:50.701Z,7.00
2023-04-07T11:03:56.183Z,7.55
2023-04-07T11:06:04.860Z,9.23
2023-04-07T11:08:09.394Z,6.70
2023-04-07T11:10:13.119Z,7.40
2023-04-07T11:12:23.714Z,6.53
2023-04-07T11:14:28.146Z,6.37
2023-04-07T11:16:42.868Z,6.10
2023-04-07T11:18:47.795Z,6.23
2023-04-07T11:20:53.801Z,5.50
2023-04-07T11:23:01.165Z,5.87
2023-04-07T11:25:21.830Z,5.90
2023-04-07T11:27:25.581Z,6.67
2023-04-07T11:29:30.398Z,6.90
2023-04-07T11:31:33.494Z,6.60
2023-04-07T11:33:38.952Z,6.90
2023-04-07T11:35:49.128Z,6.17
2023-04-07T11:37:58.782Z,6.60
2023-04-07T11:40:01.822Z,6.30
2023-04-07T11:42:06.379Z,6.03
2023-04-07T11:44:10.726Z,5.60
2023-04-07T11:46:15.744Z,5.80
2023-04-07T11:48:28.531Z,5.20
2023-04-07T11:50:41.974Z,5.17
2023-04-07T11:52:45.861Z,5.57
2023-04-07T11:54:49.951Z,6.23
2023-04-07T11:56:55.605Z,6.13
2023-04-07T11:59:00.117Z,5.30
2023-04-07T12:01:06.966Z,4.30
2023-04-07T12:03:14.685Z,4.37
2023-04-07T12:05:18.252Z,3.53
2023-04-07T12:07:21.320Z,4.50
2023-04-07T12:09:30.106Z,3.67
2023-04-07T12:11:33.838Z,4.23
2023-04-07T12:13:37.241Z,4.03
2023-04-07T12:15:42.409Z,4.10
2023-04-07T12:17:46.851Z,4.40
2023-04-07T12:19:49.985Z,5.10
2023-04-07T12:21:53.108Z,4.50
2023-04-07T12:23:56.097Z,4.43
2023-04-07T12:25:59.159Z,4.50
2023-04-07T12:28:02.260Z,3.77
2023-04-07T12:30:05.919Z,4.27
2023-04-07T12:32:10.302Z,4.40
2023-04-07T12:34:13.375Z,4.30
2023-04-07T12:36:17.099Z,3.93
2023-04-07T12:38:20.200Z,4.30
2023-04-07T12:40:23.312Z,3.80
2023-04-07T12:42:27.208Z,4.33
2023-04-07T12:44:30.359Z,4.00
2023-04-07T12:46:33.460Z,4.57
2023-04-07T12:48:37.962Z,4.30
2023-04-07T12:50:43.568Z,4.50
2023-04-07T12:52:47.229Z,4.10
2023-04-07T12:54:50.264Z,4.53
2023-04-07T12:56:53.334Z,4.83
2023-04-07T12:58:56.397Z,4.60
2023-04-07T13:01:00.753Z,4.50
2023-04-07T13:03:04.593Z,4.40
2023-04-07T13:05:09.541Z,4.47
2023-04-07T13:07:12.629Z,5.33
2023-04-07T13:09:16.056Z,5.40
2023-04-07T13:11:19.157Z,4.20
2023-04-07T13:13:22.302Z,4.90
2023-04-07T13:15:25.504Z,5.40
2023-04-07T13:17:29.026Z,4.77
2023-04-07T13:19:32.337Z,4.53
2023-04-07T13:21:46.113Z,4.33
2023-04-07T13:23:51.649Z,5.23
2023-04-07T13:25:54.813Z,4.60
2023-04-07T13:27:57.951Z,5.03
2023-04-07T13:30:01.045Z,4.80
2023-04-07T13:32:08.423Z,5.53
2023-04-07T13:34:11.541Z,5.27
2023-04-07T13:36:14.705Z,6.67
2023-04-07T13:38:19.273Z,5.60
2023-04-07T13:40:22.332Z,9.07
2023-04-07T13:42:25.549Z,8.13
2023-04-07T13:44:29.704Z,5.47
2023-04-07T13:46:32.745Z,5.37
2023-04-07T13:48:35.881Z,5.47
2023-04-07T13:50:40.948Z,5.77
2023-04-07T13:52:43.996Z,4.90
2023-04-07T13:54:48.846Z,4.67
2023-04-07T13:56:52.012Z,4.53
2023-04-07T13:58:55.133Z,4.90
2023-04-07T14:00:58.887Z,4.40
2023-04-07T14:03:02.634Z,5.10
2023-04-07T14:05:06.326Z,4.70
2023-04-07T14:07:09.456Z,4.30
2023-04-07T14:09:12.606Z,3.97
2023-04-07T14:11:19.571Z,4.67
2023-04-07T14:13:23.138Z,4.53
2023-04-07T14:15:26.398Z,7.47
2023-04-07T14:17:29.549Z,4.83
2023-04-07T14:19:33.311Z,6.03
2023-04-07T14:21:36.395Z,4.10
2023-04-07T14:23:39.524Z,5.00
2023-04-07T14:25:42.682Z,4.93
2023-04-07T14:27:47.287Z,4.77
2023-04-07T14:29:50.639Z,4.50
2023-04-07T14:31:53.672Z,4.30
2023-04-07T14:33:56.769Z,4.20
2023-04-07T14:35:59.860Z,5.35
2023-04-07T14:38:03.614Z,5.20
2023-04-07T14:40:08.420Z,5.40
2023-04-07T14:42:11.758Z,4.33
2023-04-07T14:44:16.758Z,4.37
2023-04-07T14:46:19.856Z,4.90
2023-04-07T14:48:23.310Z,5.27
2023-04-07T14:50:26.471Z,5.00
2023-04-07T14:52:29.930Z,5.00
2023-04-07T14:54:32.996Z,4.77
2023-04-07T14:56:36.187Z,5.07
2023-04-07T14:58:40.674Z,4.10
2023-04-07T15:00:45.551Z,4.27
2023-04-07T15:02:49.054Z,4.17
2023-04-07T15:04:52.491Z,4.70
2023-04-07T15:06:56.212Z,3.90
2023-04-07T15:08:59.318Z,3.70
2023-04-07T15:11:04.652Z,4.17
2023-04-07T15:13:07.762Z,4.47
2023-04-07T15:15:11.445Z,4.70
2023-04-07T15:17:18.276Z,4.97
2023-04-07T15:19:21.474Z,5.23
2023-04-07T15:21:24.832Z,5.40
2023-04-07T15:23:28.016Z,4.80
2023-04-07T15:25:31.130Z,4.37
2023-04-07T15:27:34.189Z,5.03
2023-04-07T15:29:37.337Z,4.73
2023-04-07T15:31:40.483Z,5.10
2023-04-07T15:33:46.269Z,4.90
2023-04-07T15:35:49.390Z,5.30
2023-04-07T15:37:52.579Z,5.00
2023-04-07T15:39:55.914Z,5.43
2023-04-07T15:41:59.019Z,5.33
2023-04-07T15:44:02.875Z,4.63
2023-04-07T15:46:06.074Z,4.73
2023-04-07T15:48:09.208Z,4.60
2023-04-07T15:50:13.876Z,4.57
2023-04-07T15:52:16.961Z,5.83
2023-04-07T15:54:20.454Z,4.77
2023-04-07T15:56:24.852Z,4.00
2023-04-07T15:58:28.260Z,3.50
2023-04-07T16:00:33.988Z,3.97
2023-04-07T16:02:37.066Z,3.87
2023-04-07T16:04:40.312Z,3.97
2023-04-07T16:06:44.732Z,4.03
2023-04-07T16:08:47.982Z,4.93
2023-04-07T16:10:51.174Z,3.60
2023-04-07T16:12:54.263Z,3.50
2023-04-07T16:14:57.504Z,3.73
2023-04-07T16:17:00.828Z,4.13
2023-04-07T16:19:04.061Z,3.93
2023-04-07T16:21:08.628Z,3.63
2023-04-07T16:23:13.432Z,4.00
2023-04-07T16:25:16.964Z,4.43
2023-04-07T16:27:20.081Z,3.87
2023-04-07T16:29:23.550Z,5.07
2023-04-07T16:31:26.868Z,4.07
2023-04-07T16:33:30.076Z,5.50
2023-04-07T16:35:33.222Z,4.63
2023-04-07T16:37:36.370Z,4.40
2023-04-07T16:39:40.833Z,4.40
2023-04-07T16:41:43.986Z,4.50
2023-04-07T16:43:47.442Z,4.33
2023-04-07T16:45:51.984Z,4.53
2023-04-07T16:47:55.376Z,4.00
2023-04-07T16:49:59.015Z,4.57
2023-04-07T16:52:02.152Z,5.13
2023-04-07T16:54:05.573Z,4.40
2023-04-07T16:56:16.494Z,4.33
2023-04-07T16:58:19.858Z,4.40
2023-04-07T17:00:23.061Z,3.90
2023-04-07T17:02:27.671Z,3.83
2023-04-07T17:04:31.267Z,5.07
2023-04-07T17:06:34.422Z,4.23
2023-04-07T17:08:39.242Z,4.77
2023-04-07T17:10:42.363Z,4.40
2023-04-07T17:12:52.155Z,3.93
2023-04-07T17:14:55.339Z,3.60
2023-04-07T17:16:58.665Z,4.00
2023-04-07T17:19:01.890Z,4.90
2023-04-07T17:21:05.004Z,4.10
2023-04-07T17:23:09.293Z,3.70
2023-04-07T17:25:12.407Z,3.80
2023-04-07T17:27:15.532Z,4.60
2023-04-07T17:29:20.988Z,4.00
2023-04-07T17:31:24.441Z,5.20
2023-04-07T17:33:29.574Z,4.23
2023-04-07T17:35:33.699Z,4.33
2023-04-07T17:37:38.392Z,4.80
2023-04-07T17:39:41.712Z,5.07
2023-04-07T17:41:46.791Z,4.30
2023-04-07T17:43:50.106Z,4.47
2023-04-07T17:45:54.769Z,4.90
2023-04-07T17:47:57.977Z,4.47
2023-04-07T17:50:01.762Z,5.17
2023-04-07T17:52:04.970Z,4.43
2023-04-07T17:54:08.101Z,4.77
2023-04-07T17:56:11.234Z,4.87
2023-04-07T17:58:14.553Z,4.80
2023-04-07T18:00:18.477Z,4.10
2023-04-07T18:02:23.251Z,4.60
2023-04-07T18:04:27.091Z,4.00
2023-04-07T18:06:30.757Z,4.20
2023-04-07T18:08:33.812Z,4.83
2023-04-07T18:10:37.217Z,4.03
2023-04-07T18:12:40.718Z,3.90
2023-04-07T18:14:43.788Z,3.83
2023-04-07T18:16:47.092Z,4.57
2023-04-07T18:18:52.524Z,3.63
2023-04-07T18:20:55.520Z,3.97
2023-04-07T18:22:58.831Z,3.93
2023-04-07T18:25:02.055Z,4.40
2023-04-07T18:27:05.437Z,3.23
2023-04-07T18:29:10.108Z,3.43
2023-04-07T18:31:13.465Z,3.87
2023-04-07T18:33:16.832Z,4.23
2023-04-07T18:35:21.402Z,3.83
2023-04-07T18:37:24.610Z,4.13
2023-04-07T18:39:28.031Z,4.23
2023-04-07T18:41:31.593Z,4.30
2023-04-07T18:43:34.680Z,4.60
2023-04-07T18:45:37.876Z,3.90
2023-04-07T18:47:41.036Z,4.10
2023-04-07T18:49:44.172Z,3.70
2023-04-07T18:51:48.731Z,3.50
2023-04-07T18:53:51.918Z,2.97
2023-04-07T18:55:55.468Z,3.70
2023-04-07T18:57:58.590Z,3.50
2023-04-07T19:00:02.042Z,3.70
2023-04-07T19:02:05.235Z,3.40
2023-04-07T19:04:08.630Z,2.87
2023-04-07T19:06:14.725Z,2.90
2023-04-07T19:08:19.261Z,3.13
2023-04-07T19:10:22.495Z,2.77
2023-04-07T19:12:25.761Z,3.43
2023-04-07T19:14:28.834Z,2.97
2023-04-07T19:16:33.129Z,3.30
2023-04-07T19:18:37.080Z,3.37
2023-04-07T19:20:40.237Z,3.63
2023-04-07T19:22:43.293Z,3.50
2023-04-07T19:24:47.730Z,3.47
2023-04-07T19:26:51.744Z,5.30
2023-04-07T19:28:54.807Z,3.23
2023-04-07T19:30:57.946Z,4.15
2023-04-07T19:33:01.127Z,3.53
2023-04-07T19:35:04.582Z,3.93
2023-04-07T19:37:08.274Z,3.77
2023-04-07T19:39:11.839Z,3.60
2023-04-07T19:41:16.522Z,5.00
2023-04-07T19:43:20.214Z,4.30
2023-04-07T19:45:23.330Z,4.77
2023-04-07T19:47:27.226Z,7.50
2023-04-07T19:49:30.344Z,6.03
2023-04-07T19:51:33.464Z,6.10
2023-04-07T19:53:36.507Z,5.43
2023-04-07T19:55:39.644Z,5.10
2023-04-07T19:57:44.081Z,4.87
2023-04-07T19:59:48.546Z,4.63
2023-04-07T20:01:52.585Z,4.37
2023-04-07T20:03:55.864Z,3.70
2023-04-07T20:05:59.729Z,3.33
2023-04-07T20:08:03.074Z,3.57
2023-04-07T20:10:07.062Z,3.20
2023-04-07T20:12:10.155Z,3.40
2023-04-07T20:14:14.769Z,3.30
2023-04-07T20:16:18.023Z,2.93
2023-04-07T20:18:21.086Z,3.03
2023-04-07T20:20:24.257Z,3.27
2023-04-07T20:22:27.606Z,3.80
2023-04-07T20:24:30.833Z,4.40
2023-04-07T20:26:34.231Z,3.87
2023-04-07T20:28:37.260Z,4.13
2023-04-07T20:30:41.702Z,3.60
2023-04-07T20:32:46.262Z,4.37
2023-04-07T20:34:52.070Z,4.60
2023-04-07T20:36:55.100Z,4.10
2023-04-07T20:38:58.692Z,4.47
2023-04-07T20:41:01.905Z,4.47
2023-04-07T20:43:05.086Z,7.23
2023-04-07T20:45:09.537Z,5.23
2023-04-07T20:47:14.128Z,4.47
2023-04-07T20:49:17.370Z,4.60
2023-04-07T20:51:20.557Z,4.40
2023-04-07T20:53:23.672Z,4.87
2023-04-07T20:55:27.289Z,5.30
2023-04-07T20:57:30.691Z,5.37
2023-04-07T20:59:33.721Z,5.20
2023-04-07T21:01:36.872Z,5.23
2023-04-07T21:03:41.398Z,5.20
2023-04-07T21:05:45.819Z,5.47
2023-04-07T21:07:48.923Z,4.60
2023-04-07T21:09:52.054Z,5.60
2023-04-07T21:11:55.584Z,6.97
2023-04-07T21:13:58.673Z,5.77
2023-04-07T21:16:03.859Z,10.97
2023-04-07T21:18:07.106Z,9.37
2023-04-07T21:20:12.622Z,7.83
2023-04-07T21:22:15.828Z,9.00
2023-04-07T21:24:18.977Z,9.10
2023-04-07T21:26:22.071Z,6.80
2023-04-07T21:28:25.195Z,6.60
2023-04-07T21:30:28.328Z,5.93
2023-04-07T21:32:31.382Z,6.80
2023-04-07T21:34:34.517Z,6.73
2023-04-07T21:36:40.055Z,6.70
2023-04-07T21:38:43.105Z,6.67
2023-04-07T21:40:46.173Z,6.90
2023-04-07T21:42:49.381Z,5.33
2023-04-07T21:44:52.758Z,6.40
2023-04-07T21:46:56.078Z,6.37
2023-04-07T21:48:59.459Z,6.70
2023-04-07T21:51:03.003Z,8.30
2023-04-07T21:53:08.949Z,8.00
2023-04-07T21:55:12.293Z,7.47
2023-04-07T21:57:15.396Z,8.43
2023-04-07T21:59:18.533Z,7.97
2023-04-07T22:01:21.709Z,8.40
2023-04-07T22:03:25.191Z,8.53
2023-04-07T22:05:28.823Z,7.80
2023-04-07T22:07:31.918Z,8.77
2023-04-07T22:09:36.907Z,9.93
2023-04-07T22:11:40.021Z,8.40
2023-04-07T22:13:43.169Z,8.23
2023-04-07T22:15:46.358Z,8.20
2023-04-07T22:17:49.506Z,6.93
2023-04-07T22:19:52.521Z,7.50
2023-04-07T22:21:55.584Z,6.70
2023-04-07T22:23:58.618Z,7.43
2023-04-07T22:26:03.160Z,6.90
2023-04-07T22:28:06.376Z,7.43
2023-04-07T22:30:10.975Z,7.23
2023-04-07T22:32:14.852Z,7.33
2023-04-07T22:34:17.945Z,7.17
2023-04-07T22:36:20.995Z,7.10
2023-04-07T22:38:24.520Z,7.77
2023-04-07T22:40:27.554Z,7.30
2023-04-07T22:42:32.120Z,8.27
2023-04-07T22:44:35.204Z,9.20
2023-04-07T22:46:38.330Z,10.17
2023-04-07T22:48:41.351Z,8.93
2023-04-07T22:50:44.371Z,8.97
2023-04-07T22:52:47.408Z,9.13
2023-04-07T22:54:50.496Z,9.33
2023-04-07T22:56:53.572Z,9.00
2023-04-07T22:59:05.207Z,8.93
2023-04-07T23:01:08.554Z,8.80
2023-04-07T23:03:11.746Z,9.60
2023-04-07T23:05:14.777Z,9.37
2023-04-07T23:07:17.818Z,9.03
2023-04-07T23:09:20.793Z,9.30
2023-04-07T23:11:24.013Z,9.57
2023-04-07T23:13:27.232Z,9.57
2023-04-07T23:15:31.696Z,9.27
2023-04-07T23:17:35.407Z,9.03
2023-04-07T23:19:38.421Z,9.03
2023-04-07T23:21:41.640Z,9.47
2023-04-07T23:23:44.618Z,10.10
2023-04-07T23:25:47.624Z,9.20
2023-04-07T23:27:50.653Z,10.30
2023-04-07T23:29:53.912Z,9.23
2023-04-07T23:31:58.521Z,10.00
2023-04-07T23:34:02.423Z,9.80
2023-04-07T23:36:06.172Z,10.70
2023-04-07T23:38:10.919Z,10.20
2023-04-07T23:40:14.747Z,10.00
2023-04-07T23:42:17.894Z,10.57
2023-04-07T23:44:21.767Z,11.17
2023-04-07T23:46:25.400Z,10.83
2023-04-07T23:48:29.930Z,10.10
2023-04-07T23:50:32.965Z,10.63
2023-04-07T23:52:35.997Z,10.53
2023-04-07T23:54:39.131Z,10.97
2023-04-07T23:56:42.381Z,11.43
2023-04-07T23:58:45.498Z,10.83
